Latest Coastal Weather Observations for Redcliffe

IDQ60701

Issued at 12:45 pm EST Thursday 2 October 2014 (issued every 10 minutes, with the page automatically refreshed every 10 minutes)

About coastal observations | Map of coastal stations | Coastal observations for QLD | Marine services | Other Formats
Station Details ID: 040958 Name: REDCLIFFE Lat: -27.22 Lon: 153.09 Height: 12.6 m
Data from the previous 72 hours. | See also: Recent months at Redcliffe
Date/Time
EST
Temp

°C
Wind Pressure Rain
since 9am
mm
Weather Cloud Vis
km
Sea
Height
m
Swell
Dir
 
Speed
knots
Gust
knots
hPa Trend Height
m
Period
s
Dir
02/12:30pm 21.2 E 12 15 1020.8 - 0.0 - - - - - - -
02/12:00pm 21.3 E 12 15 1021.2 - 0.0 - - - - - - -
02/11:30am 21.5 ESE 11 14 1021.4 - 0.0 - - - - - - -
02/11:00am 21.5 ESE 11 14 1021.7 - 0.0 - - - - - - -
02/10:30am 21.1 ESE 12 14 1022.0 - 0.0 - - - - - - -
02/10:00am 21.3 ESE 13 16 1022.1 - 0.0 - - - - - - -
02/09:30am 20.8 ESE 15 17 1022.1 - 0.0 - - - - - - -
02/09:00am 20.6 ESE 15 17 1022.1 - 0.0 - - - - - - -
02/08:30am 19.9 ESE 13 16 1022.0 - 0.0 - - - - - - -
02/08:00am 19.8 SE 16 19 1021.9 - 0.0 - - - - - - -
02/07:30am 19.5 SE 17 19 1021.7 - 0.0 - - - - - - -
02/07:00am 19.2 SE 17 21 1021.5 - 0.0 - - - - - - -
02/06:30am 19.1 SE 18 21 1021.3 - 0.0 - - - - - - -
02/06:00am 18.9 SE 20 23 1020.8 - 0.0 - - - - - - -
02/05:30am 18.9 SE 18 22 1020.4 - 0.0 - - - - - - -
02/05:00am 18.9 SE 21 25 1020.2 - 0.0 - - - - - - -
02/04:30am 19.1 SE 21 25 1019.6 - 0.0 - - - - - - -
02/04:00am 19.1 SSE 22 25 1019.3 - 0.0 - - - - - - -
02/03:30am 19.2 SE 23 27 1019.1 - 0.0 - - - - - - -
02/03:00am 19.4 SE 24 28 1019.1 - 0.0 - - - - - - -
02/02:30am 19.5 SE 25 29 1019.0 - 0.0 - - - - - - -
02/02:00am 19.5 SSE 24 29 1019.1 - 0.0 - - - - - - -
02/01:30am 19.5 SSE 25 30 1019.1 - 0.0 - - - - - - -
02/01:00am 19.7 SSE 25 29 1019.5 - 0.0 - - - - - - -
02/12:30am 19.8 SSE 26 31 1019.6 - 0.0 - - - - - - -
02/12:00am 19.7 SSE 25 31 1019.5 - 0.0 - - - - - - -
 
Date/Time
EST
Temp

°C
Wind Pressure Rain
since 9am
mm
Weather Cloud Vis
km
Sea
Height
m
Swell
Dir
 
Speed
knots
Gust
knots
hPa Trend Height
m
Period
s
Dir
01/11:30pm 19.8 SSE 28 32 1019.4 - 0.0 - - - - - - -
01/11:00pm 19.9 SSE 27 31 1019.3 - 0.0 - - - - - - -
01/10:30pm 20.2 SSE 29 34 1018.9 - 0.0 - - - - - - -
01/10:00pm 20.4 SSE 27 32 1018.7 - 0.0 - - - - - - -
01/09:30pm 20.5 SSE 30 36 1018.1 - 0.0 - - - - - - -
01/09:00pm 21.0 SSE 31 37 1017.3 - 0.0 - - - - - - -
01/08:30pm 21.0 SSE 29 36 1017.1 - 0.0 - - - - - - -
01/08:18pm 21.0 SSE 30 40 1016.7 - 0.0 - - - - - - -
01/08:00pm 21.0 SSE 32 38 1016.1 - 0.0 - - - - - - -
01/07:30pm 21.4 SSE 26 36 1015.5 - 0.0 - - - - - - -
01/07:20pm 22.2 SSE 26 30 1015.2 - 0.0 - - - - - - -
01/07:00pm 22.2 SE 17 20 1014.1 - 0.0 - - - - - - -
01/06:57pm 22.2 SSE 16 25 1014.1 - 0.0 - - - - - - -
01/06:30pm 22.2 N 14 15 1012.9 - 0.0 - - - - - - -
01/06:00pm 22.5 NNE 15 17 1012.8 - 0.0 - - - - - - -
01/05:30pm 22.7 NNE 16 19 1012.4 - 0.0 - - - - - - -
01/05:00pm 23.3 NNE 18 21 1012.2 - 0.0 - - - - - - -
01/04:30pm 23.7 NNE 18 20 1012.0 - 0.0 - - - - - - -
01/04:00pm 23.8 NNE 19 21 1012.0 - 0.0 - - - - - - -
01/03:30pm 24.3 NNE 16 19 1011.7 - 0.0 - - - - - - -
01/03:00pm 24.8 NNE 17 18 1011.7 - 0.0 - - - - - - -
01/02:30pm 25.8 NNE 17 18 1012.0 - 0.0 - - - - - - -
01/02:00pm 26.2 NNE 17 19 1012.3 - 0.0 - - - - - - -
01/01:30pm 26.2 NE 18 21 1012.7 - 0.0 - - - - - - -
01/01:00pm 25.6 NE 18 21 1013.4 - 0.0 - - - - - - -
01/12:30pm 25.8 NE 18 20 1014.0 - 0.0 - - - - - - -
01/12:00pm 26.8 NE 16 18 1014.5 - 0.0 - - - - - - -
01/11:30am 26.3 NE 12 15 1015.2 - 0.0 - - - - - - -
01/11:00am 25.8 NE 10 13 1015.7 - 0.0 - - - - - - -
01/10:30am 25.2 NNE 12 13 1016.5 - 0.0 - - - - - - -
01/10:00am 23.2 NNE 12 14 1017.0 - 0.0 - - - - - - -
01/09:30am 22.8 NNE 10 11 1017.5 - 0.0 - - - - - - -
01/09:00am 22.5 N 7 9 1017.9 - 0.0 - - - - - - -
01/08:30am 21.6 NW 7 9 1017.9 - 0.0 - - - - - - -
01/08:00am 21.2 N 12 14 1017.5 - 0.0 - - - - - - -
01/07:30am 19.6 N 9 12 1017.5 - 0.0 - - - - - - -
01/07:00am 19.3 N 11 14 1017.5 - 0.0 - - - - - - -
01/06:30am 18.7 N 10 14 1017.1 - 0.0 - - - - - - -
01/06:00am 18.4 N 11 15 1016.9 - 0.0 - - - - - - -
01/05:30am 18.2 N 10 12 1016.7 - 0.0 - - - - - - -
01/05:00am 18.4 N 11 15 1016.5 - 0.0 - - - - - - -
01/04:30am 18.6 N 10 15 1016.3 - 0.0 - - - - - - -
01/04:00am 18.7 N 9 13 1016.1 - 0.0 - - - - - - -
01/03:30am 18.2 N 9 14 1016.1 - 0.0 - - - - - - -
01/03:00am 18.6 N 9 13 1016.3 - 0.0 - - - - - - -
01/02:30am 18.7 N 10 14 1016.5 - 0.0 - - - - - - -
01/02:00am 19.0 N 9 13 1016.6 - 0.0 - - - - - - -
01/01:30am 19.0 N 9 13 1016.9 - 0.0 - - - - - - -
01/01:00am 19.3 N 11 15 1017.2 - 0.0 - - - - - - -
01/12:30am 19.5 N 10 13 1017.5 - 0.0 - - - - - - -
01/12:00am 19.7 N 13 17 1017.6 - 0.0 - - - - - - -
 
Date/Time
EST
Temp

°C
Wind Pressure Rain
since 9am
mm
Weather Cloud Vis
km
Sea
Height
m
Swell
Dir
 
Speed
knots
Gust
knots
hPa Trend Height
m
Period
s
Dir
30/11:30pm 19.8 N 15 19 1017.8 - 0.0 - - - - - - -
30/11:00pm 20.0 N 16 21 1017.8 - 0.0 - - - - - - -
30/10:30pm 20.1 N 15 20 1018.0 - 0.0 - - - - - - -
30/10:00pm 20.3 N 14 18 1018.1 - 0.0 - - - - - - -
30/09:30pm 20.5 N 13 18 1018.2 - 0.0 - - - - - - -
30/09:00pm 20.6 N 12 16 1018.3 - 0.0 - - - - - - -
30/08:30pm 20.7 N 13 17 1018.3 - 0.0 - - - - - - -
30/08:00pm 20.8 N 14 17 1018.2 - 0.0 - - - - - - -
30/07:30pm 20.8 N 13 16 1018.0 - 0.0 - - - - - - -
30/07:00pm 21.0 N 16 19 1017.9 - 0.0 - - - - - - -
30/06:30pm 21.2 N 17 19 1017.7 - 0.0 - - - - - - -
30/06:00pm 21.3 N 19 22 1017.3 - 0.0 - - - - - - -
30/05:30pm 21.6 N 18 20 1017.4 - 0.0 - - - - - - -
30/05:00pm 22.0 N 17 20 1017.1 - 0.0 - - - - - - -
30/04:30pm 22.5 NNE 17 20 1016.9 - 0.0 - - - - - - -
30/04:00pm 22.9 NNE 17 20 1016.8 - 0.0 - - - - - - -
30/03:30pm 23.2 NNE 18 20 1016.8 - 0.0 - - - - - - -
30/03:00pm 23.9 NNE 18 21 1016.8 - 0.0 - - - - - - -
30/02:30pm 24.2 NNE 19 22 1016.9 - 0.0 - - - - - - -
30/02:00pm 23.7 NNE 20 23 1017.3 - 0.0 - - - - - - -
30/01:30pm 24.6 NE 19 21 1017.7 - 0.0 - - - - - - -
30/01:00pm 24.4 NE 18 21 1018.0 - 0.0 - - - - - - -
30/12:30pm 24.0 NE 17 20 1018.4 - 0.0 - - - - - - -
30/12:00pm 24.5 NE 15 18 1019.0 - 0.0 - - - - - - -
30/11:30am 24.5 NE 15 17 1019.4 - 0.0 - - - - - - -
30/11:00am 23.7 NE 10 15 1019.8 - 0.0 - - - - - - -
30/10:30am 23.8 NNE 8 12 1020.2 - 0.0 - - - - - - -
30/10:00am 23.1 NNE 6 8 1020.8 - 0.0 - - - - - - -
30/09:30am 21.7 NNE 8 9 1021.1 - 0.0 - - - - - - -
30/09:00am 20.7 NNE 8 8 1021.3 - 0.0 - - - - - - -
30/08:30am 19.9 NNE 8 9 1021.3 - 0.0 - - - - - - -
30/08:00am 18.7 N 5 6 1021.3 - 0.0 - - - - - - -
30/07:30am 18.0 NNW 4 5 1021.1 - 0.0 - - - - - - -
30/07:00am 16.8 WNW 3 4 1021.0 - 0.0 - - - - - - -
30/06:30am 15.6 WNW 4 5 1020.6 - 0.0 - - - - - - -
30/06:00am 14.1 WNW 5 6 1020.4 - 0.0 - - - - - - -
30/05:30am 14.7 NW 5 6 1019.9 - 0.0 - - - - - - -
30/05:00am 14.6 NW 5 7 1019.6 - 0.0 - - - - - - -
30/04:30am 15.0 NW 5 6 1019.4 - 0.0 - - - - - - -
30/04:00am 15.0 NW 5 6 1019.1 - 0.0 - - - - - - -
30/03:30am 15.1 NW 5 6 1018.9 - 0.0 - - - - - - -
30/03:00am 15.0 NW 5 6 1018.9 - 0.0 - - - - - - -
30/02:30am 15.3 NW 5 6 1019.1 - 0.0 - - - - - - -
30/02:00am 15.5 WNW 5 6 1019.2 - 0.0 - - - - - - -
30/01:30am 16.9 NNW 5 6 1019.2 - 0.0 - - - - - - -
30/01:00am 17.9 N 6 7 1019.1 - 0.0 - - - - - - -
30/12:30am 17.5 N 6 8 1019.3 - 0.0 - - - - - - -
30/12:00am 17.7 N 7 8 1019.4 - 0.0 - - - - - - -
 
Date/Time
EST
Temp

°C
Wind Pressure Rain
since 9am
mm
Weather Cloud Vis
km
Sea
Height
m
Swell
Dir
 
Speed
knots
Gust
knots
hPa Trend Height
m
Period
s
Dir
29/11:30pm 17.8 N 7 8 1019.7 - 0.0 - - - - - - -
29/11:00pm 18.3 N 9 13 1019.7 - 0.0 - - - - - - -
29/10:30pm 18.6 NNW 7 10 1019.8 - 0.0 - - - - - - -
29/10:00pm 18.4 NNW 7 10 1019.7 - 0.0 - - - - - - -
29/09:30pm 18.8 NNW 8 11 1019.7 - 0.0 - - - - - - -
29/09:00pm 19.3 N 8 11 1019.9 - 0.0 - - - - - - -
29/08:30pm 19.7 N 9 11 1019.9 - 0.0 - - - - - - -
29/08:00pm 20.0 N 11 15 1019.8 - 0.0 - - - - - - -
29/07:30pm 20.0 N 13 16 1019.4 - 0.0 - - - - - - -
29/07:00pm 20.1 NNE 12 14 1019.2 - 0.0 - - - - - - -
29/06:30pm 20.3 NNE 15 17 1018.8 - 0.0 - - - - - - -
29/06:00pm 20.5 N 15 17 1018.6 - 0.0 - - - - - - -
29/05:30pm 20.7 NNE 15 18 1018.2 - 0.0 - - - - - - -
29/05:00pm 21.0 NNE 17 19 1018.0 - 0.0 - - - - - - -
29/04:30pm 21.5 NNE 16 18 1017.8 - 0.0 - - - - - - -
29/04:00pm 21.6 NE 16 18 1017.6 - 0.0 - - - - - - -
29/03:30pm 22.3 NE 16 18 1017.5 - 0.0 - - - - - - -
29/03:00pm 21.7 NE 16 18 1017.4 - 0.0 - - - - - - -
29/02:30pm 22.3 NE 16 18 1017.5 - 0.0 - - - - - - -
29/02:00pm 21.9 NE 16 18 1017.7 - 0.0 - - - - - - -
29/01:30pm 22.2 NE 15 16 1018.0 - 0.0 - - - - - - -
29/01:00pm 23.1 NE 14 15 1018.4 - 0.0 - - - - - - -

Other Formats:

Comma delimited format used in spreadsheet applications
http://www.bom.gov.au/fwo/IDQ60701/IDQ60701.95591.axf

JavaScript Object Notation format (JSON) in row-major order
http://www.bom.gov.au/fwo/IDQ60701/IDQ60701.95591.json